sensor_id;sensor_type;location;lat;lon;timestamp;P1;durP1;ratioP1;P2;durP2;ratioP2
65936;SDS011;52707;52.086;5.418;2023-06-26T00:00:01;9.80;;;7.63;;
65936;SDS011;52707;52.086;5.418;2023-06-26T00:02:30;8.90;;;7.40;;
65936;SDS011;52707;52.086;5.418;2023-06-26T00:04:59;11.52;;;8.07;;
65936;SDS011;52707;52.086;5.418;2023-06-26T00:07:28;9.25;;;7.40;;
65936;SDS011;52707;52.086;5.418;2023-06-26T00:09:56;9.73;;;8.30;;
65936;SDS011;52707;52.086;5.418;2023-06-26T00:12:23;15.70;;;8.10;;
65936;SDS011;52707;52.086;5.418;2023-06-26T00:14:49;10.57;;;7.68;;
65936;SDS011;52707;52.086;5.418;2023-06-26T00:17:16;16.65;;;7.55;;
65936;SDS011;52707;52.086;5.418;2023-06-26T00:19:42;9.35;;;7.40;;
65936;SDS011;52707;52.086;5.418;2023-06-26T00:22:08;13.70;;;7.78;;
65936;SDS011;52707;52.086;5.418;2023-06-26T00:24:35;10.60;;;7.32;;
65936;SDS011;52707;52.086;5.418;2023-06-26T00:27:01;10.23;;;7.00;;
65936;SDS011;52707;52.086;5.418;2023-06-26T00:29:27;11.63;;;6.55;;
65936;SDS011;52707;52.086;5.418;2023-06-26T00:31:54;9.30;;;6.95;;
65936;SDS011;52707;52.086;5.418;2023-06-26T00:34:20;6.93;;;5.88;;
65936;SDS011;52707;52.086;5.418;2023-06-26T00:36:46;9.75;;;6.20;;
65936;SDS011;52707;52.086;5.418;2023-06-26T00:39:13;9.32;;;6.60;;
65936;SDS011;52707;52.086;5.418;2023-06-26T00:41:39;11.75;;;6.90;;
65936;SDS011;52707;52.086;5.418;2023-06-26T00:44:06;6.80;;;6.13;;
65936;SDS011;52707;52.086;5.418;2023-06-26T00:46:32;13.80;;;6.50;;
65936;SDS011;52707;52.086;5.418;2023-06-26T00:48:59;8.43;;;6.35;;
65936;SDS011;52707;52.086;5.418;2023-06-26T00:51:26;7.43;;;6.25;;
65936;SDS011;52707;52.086;5.418;2023-06-26T00:53:53;8.35;;;5.95;;
65936;SDS011;52707;52.086;5.418;2023-06-26T00:56:20;9.60;;;6.43;;
65936;SDS011;52707;52.086;5.418;2023-06-26T00:58:46;19.42;;;5.88;;
65936;SDS011;52707;52.086;5.418;2023-06-26T01:01:13;9.68;;;6.70;;
65936;SDS011;52707;52.086;5.418;2023-06-26T01:06:09;7.82;;;6.05;;
65936;SDS011;52707;52.086;5.418;2023-06-26T01:08:38;9.00;;;6.65;;
65936;SDS011;52707;52.086;5.418;2023-06-26T01:11:05;8.90;;;6.45;;
65936;SDS011;52707;52.086;5.418;2023-06-26T01:13:31;15.25;;;6.35;;
65936;SDS011;52707;52.086;5.418;2023-06-26T01:15:58;7.65;;;5.97;;
65936;SDS011;52707;52.086;5.418;2023-06-26T01:18:25;12.07;;;6.60;;
65936;SDS011;52707;52.086;5.418;2023-06-26T01:20:51;7.15;;;6.45;;
65936;SDS011;52707;52.086;5.418;2023-06-26T01:23:24;9.20;;;6.43;;
65936;SDS011;52707;52.086;5.418;2023-06-26T01:28:22;11.43;;;6.27;;
65936;SDS011;52707;52.086;5.418;2023-06-26T01:30:48;12.30;;;6.50;;
65936;SDS011;52707;52.086;5.418;2023-06-26T01:33:16;9.93;;;6.00;;
65936;SDS011;52707;52.086;5.418;2023-06-26T01:35:43;7.35;;;5.93;;
65936;SDS011;52707;52.086;5.418;2023-06-26T01:40:39;12.18;;;5.85;;
65936;SDS011;52707;52.086;5.418;2023-06-26T01:43:07;8.10;;;5.82;;
65936;SDS011;52707;52.086;5.418;2023-06-26T01:45:37;8.85;;;5.07;;
65936;SDS011;52707;52.086;5.418;2023-06-26T01:48:05;9.25;;;5.25;;
65936;SDS011;52707;52.086;5.418;2023-06-26T01:50:32;8.18;;;5.13;;
65936;SDS011;52707;52.086;5.418;2023-06-26T01:58:05;6.30;;;4.43;;
65936;SDS011;52707;52.086;5.418;2023-06-26T02:00:32;9.85;;;5.15;;
65936;SDS011;52707;52.086;5.418;2023-06-26T02:02:59;9.27;;;4.93;;
65936;SDS011;52707;52.086;5.418;2023-06-26T02:05:26;6.25;;;4.13;;
65936;SDS011;52707;52.086;5.418;2023-06-26T02:07:52;11.45;;;4.50;;
65936;SDS011;52707;52.086;5.418;2023-06-26T02:10:19;6.00;;;4.38;;
65936;SDS011;52707;52.086;5.418;2023-06-26T02:12:45;7.07;;;4.28;;
65936;SDS011;52707;52.086;5.418;2023-06-26T02:15:11;7.07;;;4.38;;
65936;SDS011;52707;52.086;5.418;2023-06-26T02:17:38;12.40;;;4.07;;
65936;SDS011;52707;52.086;5.418;2023-06-26T02:20:05;10.57;;;4.13;;
65936;SDS011;52707;52.086;5.418;2023-06-26T02:22:32;6.25;;;3.60;;
65936;SDS011;52707;52.086;5.418;2023-06-26T02:24:58;13.65;;;5.15;;
65936;SDS011;52707;52.086;5.418;2023-06-26T02:27:25;17.75;;;4.22;;
65936;SDS011;52707;52.086;5.418;2023-06-26T02:29:51;11.18;;;4.57;;
65936;SDS011;52707;52.086;5.418;2023-06-26T02:32:18;9.50;;;3.90;;
65936;SDS011;52707;52.086;5.418;2023-06-26T02:34:44;12.00;;;4.00;;
65936;SDS011;52707;52.086;5.418;2023-06-26T02:37:10;9.43;;;4.30;;
65936;SDS011;52707;52.086;5.418;2023-06-26T02:39:37;11.38;;;4.57;;
65936;SDS011;52707;52.086;5.418;2023-06-26T02:42:03;9.63;;;4.35;;
65936;SDS011;52707;52.086;5.418;2023-06-26T02:44:30;17.00;;;4.90;;
65936;SDS011;52707;52.086;5.418;2023-06-26T02:46:56;9.75;;;3.80;;
65936;SDS011;52707;52.086;5.418;2023-06-26T02:49:22;12.50;;;4.35;;
65936;SDS011;52707;52.086;5.418;2023-06-26T02:51:49;14.13;;;4.32;;
65936;SDS011;52707;52.086;5.418;2023-06-26T02:54:15;21.70;;;4.75;;
65936;SDS011;52707;52.086;5.418;2023-06-26T02:56:41;13.73;;;4.32;;
65936;SDS011;52707;52.086;5.418;2023-06-26T02:59:13;12.73;;;4.88;;
65936;SDS011;52707;52.086;5.418;2023-06-26T03:01:40;14.00;;;4.78;;
65936;SDS011;52707;52.086;5.418;2023-06-26T03:04:06;8.70;;;3.75;;
65936;SDS011;52707;52.086;5.418;2023-06-26T03:06:32;13.98;;;4.32;;
65936;SDS011;52707;52.086;5.418;2023-06-26T03:08:59;11.75;;;4.40;;
65936;SDS011;52707;52.086;5.418;2023-06-26T03:11:25;9.63;;;4.43;;
65936;SDS011;52707;52.086;5.418;2023-06-26T03:13:51;10.05;;;4.13;;
65936;SDS011;52707;52.086;5.418;2023-06-26T03:16:18;13.63;;;5.03;;
65936;SDS011;52707;52.086;5.418;2023-06-26T03:18:44;18.80;;;4.88;;
65936;SDS011;52707;52.086;5.418;2023-06-26T03:21:11;15.13;;;4.35;;
65936;SDS011;52707;52.086;5.418;2023-06-26T03:23:38;19.10;;;4.45;;
65936;SDS011;52707;52.086;5.418;2023-06-26T03:26:05;16.08;;;5.15;;
65936;SDS011;52707;52.086;5.418;2023-06-26T03:28:31;15.63;;;4.60;;
65936;SDS011;52707;52.086;5.418;2023-06-26T03:30:57;20.48;;;5.45;;
65936;SDS011;52707;52.086;5.418;2023-06-26T03:33:24;11.15;;;4.45;;
65936;SDS011;52707;52.086;5.418;2023-06-26T03:35:50;20.48;;;4.88;;
65936;SDS011;52707;52.086;5.418;2023-06-26T03:38:17;12.18;;;4.28;;
65936;SDS011;52707;52.086;5.418;2023-06-26T03:40:43;15.20;;;4.30;;
65936;SDS011;52707;52.086;5.418;2023-06-26T03:43:09;11.48;;;4.88;;
65936;SDS011;52707;52.086;5.418;2023-06-26T03:45:36;21.52;;;5.50;;
65936;SDS011;52707;52.086;5.418;2023-06-26T03:48:02;14.60;;;4.95;;
65936;SDS011;52707;52.086;5.418;2023-06-26T03:50:29;18.13;;;5.07;;
65936;SDS011;52707;52.086;5.418;2023-06-26T03:52:55;17.52;;;5.28;;
65936;SDS011;52707;52.086;5.418;2023-06-26T03:55:21;20.70;;;5.00;;
65936;SDS011;52707;52.086;5.418;2023-06-26T03:57:49;17.55;;;5.38;;
65936;SDS011;52707;52.086;5.418;2023-06-26T04:00:16;15.63;;;5.10;;
65936;SDS011;52707;52.086;5.418;2023-06-26T04:02:42;14.98;;;5.40;;
65936;SDS011;52707;52.086;5.418;2023-06-26T04:05:09;24.15;;;5.82;;
65936;SDS011;52707;52.086;5.418;2023-06-26T04:07:36;15.75;;;5.10;;
65936;SDS011;52707;52.086;5.418;2023-06-26T04:10:03;15.02;;;4.90;;
65936;SDS011;52707;52.086;5.418;2023-06-26T04:12:29;15.68;;;4.95;;
65936;SDS011;52707;52.086;5.418;2023-06-26T04:14:56;15.07;;;4.97;;
65936;SDS011;52707;52.086;5.418;2023-06-26T04:17:22;20.13;;;5.90;;
65936;SDS011;52707;52.086;5.418;2023-06-26T04:19:48;13.82;;;5.00;;
65936;SDS011;52707;52.086;5.418;2023-06-26T04:22:15;12.88;;;4.28;;
65936;SDS011;52707;52.086;5.418;2023-06-26T04:24:41;14.35;;;5.18;;
65936;SDS011;52707;52.086;5.418;2023-06-26T04:27:08;18.52;;;4.25;;
65936;SDS011;52707;52.086;5.418;2023-06-26T04:29:34;17.65;;;4.80;;
65936;SDS011;52707;52.086;5.418;2023-06-26T04:32:00;15.95;;;4.93;;
65936;SDS011;52707;52.086;5.418;2023-06-26T04:34:27;14.13;;;4.72;;
65936;SDS011;52707;52.086;5.418;2023-06-26T04:36:54;15.32;;;4.75;;
65936;SDS011;52707;52.086;5.418;2023-06-26T04:39:20;20.90;;;4.88;;
65936;SDS011;52707;52.086;5.418;2023-06-26T04:41:47;20.95;;;5.43;;
65936;SDS011;52707;52.086;5.418;2023-06-26T04:44:15;17.27;;;4.30;;
65936;SDS011;52707;52.086;5.418;2023-06-26T04:46:41;13.35;;;4.32;;
65936;SDS011;52707;52.086;5.418;2023-06-26T04:49:08;19.73;;;4.68;;
65936;SDS011;52707;52.086;5.418;2023-06-26T04:51:34;15.90;;;4.72;;
65936;SDS011;52707;52.086;5.418;2023-06-26T04:54:07;21.70;;;4.57;;
65936;SDS011;52707;52.086;5.418;2023-06-26T04:56:34;13.30;;;4.07;;
65936;SDS011;52707;52.086;5.418;2023-06-26T04:59:00;12.98;;;4.18;;
65936;SDS011;52707;52.086;5.418;2023-06-26T05:01:27;14.18;;;4.13;;
65936;SDS011;52707;52.086;5.418;2023-06-26T05:03:58;17.60;;;4.38;;
65936;SDS011;52707;52.086;5.418;2023-06-26T05:06:25;12.38;;;4.55;;
65936;SDS011;52707;52.086;5.418;2023-06-26T05:08:51;9.75;;;3.53;;
65936;SDS011;52707;52.086;5.418;2023-06-26T05:11:18;23.67;;;4.55;;
65936;SDS011;52707;52.086;5.418;2023-06-26T05:13:44;9.98;;;3.85;;
65936;SDS011;52707;52.086;5.418;2023-06-26T05:16:10;10.85;;;3.60;;
65936;SDS011;52707;52.086;5.418;2023-06-26T05:18:37;7.60;;;3.55;;
65936;SDS011;52707;52.086;5.418;2023-06-26T05:21:03;10.32;;;3.63;;
65936;SDS011;52707;52.086;5.418;2023-06-26T05:23:30;14.27;;;4.35;;
65936;SDS011;52707;52.086;5.418;2023-06-26T05:25:57;6.97;;;3.20;;
65936;SDS011;52707;52.086;5.418;2023-06-26T05:28:24;17.70;;;4.32;;
65936;SDS011;52707;52.086;5.418;2023-06-26T05:30:51;10.23;;;3.38;;
65936;SDS011;52707;52.086;5.418;2023-06-26T05:33:18;11.35;;;3.28;;
65936;SDS011;52707;52.086;5.418;2023-06-26T05:35:45;18.17;;;4.07;;
65936;SDS011;52707;52.086;5.418;2023-06-26T05:38:12;13.25;;;4.20;;
65936;SDS011;52707;52.086;5.418;2023-06-26T05:40:39;13.80;;;3.28;;
65936;SDS011;52707;52.086;5.418;2023-06-26T05:43:07;11.52;;;4.10;;
65936;SDS011;52707;52.086;5.418;2023-06-26T05:45:33;7.22;;;2.78;;
65936;SDS011;52707;52.086;5.418;2023-06-26T05:48:00;9.27;;;2.97;;
65936;SDS011;52707;52.086;5.418;2023-06-26T05:50:27;8.88;;;3.33;;
65936;SDS011;52707;52.086;5.418;2023-06-26T05:52:54;6.88;;;2.83;;
65936;SDS011;52707;52.086;5.418;2023-06-26T05:55:20;6.80;;;3.00;;
65936;SDS011;52707;52.086;5.418;2023-06-26T05:57:47;8.50;;;2.85;;
65936;SDS011;52707;52.086;5.418;2023-06-26T06:00:14;7.10;;;2.67;;
65936;SDS011;52707;52.086;5.418;2023-06-26T06:02:41;7.40;;;3.28;;
65936;SDS011;52707;52.086;5.418;2023-06-26T06:05:08;6.88;;;2.42;;
65936;SDS011;52707;52.086;5.418;2023-06-26T06:07:35;9.63;;;2.58;;
65936;SDS011;52707;52.086;5.418;2023-06-26T06:10:02;8.88;;;3.42;;
65936;SDS011;52707;52.086;5.418;2023-06-26T06:12:29;7.32;;;2.65;;
65936;SDS011;52707;52.086;5.418;2023-06-26T06:14:55;5.28;;;2.50;;
65936;SDS011;52707;52.086;5.418;2023-06-26T06:17:22;4.88;;;2.60;;
65936;SDS011;52707;52.086;5.418;2023-06-26T06:19:48;8.85;;;2.80;;
65936;SDS011;52707;52.086;5.418;2023-06-26T06:22:15;7.35;;;2.58;;
65936;SDS011;52707;52.086;5.418;2023-06-26T06:24:42;6.28;;;2.20;;
65936;SDS011;52707;52.086;5.418;2023-06-26T06:27:10;7.70;;;2.38;;
65936;SDS011;52707;52.086;5.418;2023-06-26T06:29:36;9.60;;;2.65;;
65936;SDS011;52707;52.086;5.418;2023-06-26T06:32:03;9.10;;;3.03;;
65936;SDS011;52707;52.086;5.418;2023-06-26T06:34:29;7.47;;;2.40;;
65936;SDS011;52707;52.086;5.418;2023-06-26T06:36:55;7.45;;;2.40;;
65936;SDS011;52707;52.086;5.418;2023-06-26T06:39:22;5.28;;;2.45;;
65936;SDS011;52707;52.086;5.418;2023-06-26T06:41:48;11.45;;;2.25;;
65936;SDS011;52707;52.086;5.418;2023-06-26T06:44:14;7.13;;;2.53;;
65936;SDS011;52707;52.086;5.418;2023-06-26T06:46:41;8.93;;;2.80;;
65936;SDS011;52707;52.086;5.418;2023-06-26T06:49:08;9.68;;;2.85;;
65936;SDS011;52707;52.086;5.418;2023-06-26T06:51:34;3.08;;;2.47;;
65936;SDS011;52707;52.086;5.418;2023-06-26T06:54:01;5.00;;;2.60;;
65936;SDS011;52707;52.086;5.418;2023-06-26T06:56:27;8.70;;;2.20;;
65936;SDS011;52707;52.086;5.418;2023-06-26T06:58:54;9.32;;;2.60;;
65936;SDS011;52707;52.086;5.418;2023-06-26T07:01:20;5.90;;;2.70;;
65936;SDS011;52707;52.086;5.418;2023-06-26T07:03:47;8.95;;;2.55;;
65936;SDS011;52707;52.086;5.418;2023-06-26T07:06:13;5.50;;;2.42;;
65936;SDS011;52707;52.086;5.418;2023-06-26T07:08:40;7.03;;;2.80;;
65936;SDS011;52707;52.086;5.418;2023-06-26T07:11:06;7.70;;;2.83;;
65936;SDS011;52707;52.086;5.418;2023-06-26T07:13:32;6.20;;;2.90;;
65936;SDS011;52707;52.086;5.418;2023-06-26T07:15:59;8.00;;;2.83;;
65936;SDS011;52707;52.086;5.418;2023-06-26T07:18:25;6.13;;;2.67;;
65936;SDS011;52707;52.086;5.418;2023-06-26T07:20:51;5.97;;;2.70;;
65936;SDS011;52707;52.086;5.418;2023-06-26T07:23:18;11.02;;;2.85;;
65936;SDS011;52707;52.086;5.418;2023-06-26T07:25:44;5.30;;;2.45;;
65936;SDS011;52707;52.086;5.418;2023-06-26T07:28:11;12.07;;;3.22;;
65936;SDS011;52707;52.086;5.418;2023-06-26T07:30:38;5.72;;;2.45;;
65936;SDS011;52707;52.086;5.418;2023-06-26T07:33:04;6.18;;;2.25;;
65936;SDS011;52707;52.086;5.418;2023-06-26T07:35:31;10.70;;;2.45;;
65936;SDS011;52707;52.086;5.418;2023-06-26T07:37:57;8.15;;;2.78;;
65936;SDS011;52707;52.086;5.418;2023-06-26T07:40:24;5.57;;;2.78;;
65936;SDS011;52707;52.086;5.418;2023-06-26T07:42:50;8.27;;;2.67;;
65936;SDS011;52707;52.086;5.418;2023-06-26T07:45:16;5.65;;;2.47;;
65936;SDS011;52707;52.086;5.418;2023-06-26T07:47:43;10.00;;;3.00;;
65936;SDS011;52707;52.086;5.418;2023-06-26T07:50:10;11.50;;;2.83;;
65936;SDS011;52707;52.086;5.418;2023-06-26T07:52:36;6.68;;;2.40;;
65936;SDS011;52707;52.086;5.418;2023-06-26T07:55:03;9.95;;;3.55;;
65936;SDS011;52707;52.086;5.418;2023-06-26T07:57:30;5.68;;;2.65;;
65936;SDS011;52707;52.086;5.418;2023-06-26T07:59:57;9.90;;;3.30;;
65936;SDS011;52707;52.086;5.418;2023-06-26T08:02:23;10.45;;;2.72;;
65936;SDS011;52707;52.086;5.418;2023-06-26T08:04:49;4.93;;;2.78;;
65936;SDS011;52707;52.086;5.418;2023-06-26T08:07:16;9.38;;;2.88;;
65936;SDS011;52707;52.086;5.418;2023-06-26T08:09:42;6.85;;;2.50;;
65936;SDS011;52707;52.086;5.418;2023-06-26T08:12:09;10.82;;;2.80;;
65936;SDS011;52707;52.086;5.418;2023-06-26T08:14:38;6.77;;;2.27;;
65936;SDS011;52707;52.086;5.418;2023-06-26T08:17:05;7.82;;;2.83;;
65936;SDS011;52707;52.086;5.418;2023-06-26T08:19:31;7.32;;;2.58;;
65936;SDS011;52707;52.086;5.418;2023-06-26T08:21:57;4.95;;;2.28;;
65936;SDS011;52707;52.086;5.418;2023-06-26T08:24:24;8.18;;;2.20;;
65936;SDS011;52707;52.086;5.418;2023-06-26T08:26:50;19.25;;;4.10;;
65936;SDS011;52707;52.086;5.418;2023-06-26T08:29:16;7.97;;;2.70;;
65936;SDS011;52707;52.086;5.418;2023-06-26T08:31:43;10.27;;;2.45;;
65936;SDS011;52707;52.086;5.418;2023-06-26T08:34:10;9.95;;;2.30;;
65936;SDS011;52707;52.086;5.418;2023-06-26T08:36:36;7.82;;;2.40;;
65936;SDS011;52707;52.086;5.418;2023-06-26T08:39:02;8.70;;;2.42;;
65936;SDS011;52707;52.086;5.418;2023-06-26T08:41:31;9.77;;;2.40;;
65936;SDS011;52707;52.086;5.418;2023-06-26T08:43:57;7.00;;;1.65;;
65936;SDS011;52707;52.086;5.418;2023-06-26T08:46:24;11.70;;;2.08;;
65936;SDS011;52707;52.086;5.418;2023-06-26T08:48:57;4.50;;;1.95;;
65936;SDS011;52707;52.086;5.418;2023-06-26T08:51:27;4.13;;;1.73;;
65936;SDS011;52707;52.086;5.418;2023-06-26T08:53:58;9.63;;;1.70;;
65936;SDS011;52707;52.086;5.418;2023-06-26T08:58:51;6.00;;;1.40;;
65936;SDS011;52707;52.086;5.418;2023-06-26T09:01:18;8.35;;;1.50;;
65936;SDS011;52707;52.086;5.418;2023-06-26T09:03:45;7.05;;;2.38;;
65936;SDS011;52707;52.086;5.418;2023-06-26T09:06:12;6.90;;;1.52;;
65936;SDS011;52707;52.086;5.418;2023-06-26T09:08:38;9.68;;;1.63;;
65936;SDS011;52707;52.086;5.418;2023-06-26T09:11:04;9.93;;;2.15;;
65936;SDS011;52707;52.086;5.418;2023-06-26T09:13:31;8.35;;;1.88;;
65936;SDS011;52707;52.086;5.418;2023-06-26T09:15:57;13.93;;;1.80;;
65936;SDS011;52707;52.086;5.418;2023-06-26T09:18:24;9.50;;;2.00;;
65936;SDS011;52707;52.086;5.418;2023-06-26T09:20:50;9.15;;;2.05;;
65936;SDS011;52707;52.086;5.418;2023-06-26T09:23:17;5.97;;;1.42;;
65936;SDS011;52707;52.086;5.418;2023-06-26T09:25:43;4.50;;;1.73;;
65936;SDS011;52707;52.086;5.418;2023-06-26T09:28:13;9.13;;;1.97;;
65936;SDS011;52707;52.086;5.418;2023-06-26T09:30:39;8.68;;;1.77;;
65936;SDS011;52707;52.086;5.418;2023-06-26T09:33:19;22.42;;;1.70;;
65936;SDS011;52707;52.086;5.418;2023-06-26T09:35:46;5.05;;;1.85;;
65936;SDS011;52707;52.086;5.418;2023-06-26T09:38:13;6.82;;;1.67;;
65936;SDS011;52707;52.086;5.418;2023-06-26T09:40:40;4.07;;;1.38;;
65936;SDS011;52707;52.086;5.418;2023-06-26T09:43:09;5.88;;;1.52;;
65936;SDS011;52707;52.086;5.418;2023-06-26T09:45:35;3.22;;;1.33;;
65936;SDS011;52707;52.086;5.418;2023-06-26T09:48:05;9.88;;;2.05;;
65936;SDS011;52707;52.086;5.418;2023-06-26T09:50:34;6.97;;;1.60;;
65936;SDS011;52707;52.086;5.418;2023-06-26T09:53:12;7.05;;;1.60;;
65936;SDS011;52707;52.086;5.418;2023-06-26T09:55:44;7.97;;;1.90;;
65936;SDS011;52707;52.086;5.418;2023-06-26T09:58:11;4.18;;;1.25;;
65936;SDS011;52707;52.086;5.418;2023-06-26T10:00:41;4.85;;;1.63;;
65936;SDS011;52707;52.086;5.418;2023-06-26T10:03:09;5.35;;;1.40;;
65936;SDS011;52707;52.086;5.418;2023-06-26T10:05:37;5.90;;;1.60;;
65936;SDS011;52707;52.086;5.418;2023-06-26T10:08:04;5.93;;;2.03;;
65936;SDS011;52707;52.086;5.418;2023-06-26T10:10:31;5.43;;;1.60;;
65936;SDS011;52707;52.086;5.418;2023-06-26T10:12:59;5.45;;;1.67;;
65936;SDS011;52707;52.086;5.418;2023-06-26T10:15:27;6.95;;;1.50;;
65936;SDS011;52707;52.086;5.418;2023-06-26T10:17:55;3.22;;;1.50;;
65936;SDS011;52707;52.086;5.418;2023-06-26T10:20:22;6.00;;;1.60;;
65936;SDS011;52707;52.086;5.418;2023-06-26T10:22:48;5.18;;;1.73;;
65936;SDS011;52707;52.086;5.418;2023-06-26T10:25:16;4.00;;;1.23;;
65936;SDS011;52707;52.086;5.418;2023-06-26T10:27:45;12.50;;;2.03;;
65936;SDS011;52707;52.086;5.418;2023-06-26T10:30:14;10.45;;;1.60;;
65936;SDS011;52707;52.086;5.418;2023-06-26T10:32:42;7.75;;;1.88;;
65936;SDS011;52707;52.086;5.418;2023-06-26T10:35:09;10.75;;;1.77;;
65936;SDS011;52707;52.086;5.418;2023-06-26T10:40:09;7.80;;;1.60;;
65936;SDS011;52707;52.086;5.418;2023-06-26T10:42:36;4.60;;;1.33;;
65936;SDS011;52707;52.086;5.418;2023-06-26T10:45:10;5.03;;;1.25;;
65936;SDS011;52707;52.086;5.418;2023-06-26T10:47:40;7.40;;;1.50;;
65936;SDS011;52707;52.086;5.418;2023-06-26T10:53:15;6.35;;;1.40;;
65936;SDS011;52707;52.086;5.418;2023-06-26T11:03:37;8.32;;;1.83;;
65936;SDS011;52707;52.086;5.418;2023-06-26T11:11:21;4.00;;;1.38;;
65936;SDS011;52707;52.086;5.418;2023-06-26T11:13:48;3.67;;;1.65;;
65936;SDS011;52707;52.086;5.418;2023-06-26T11:16:15;4.07;;;1.45;;
65936;SDS011;52707;52.086;5.418;2023-06-26T11:18:41;8.55;;;1.70;;
65936;SDS011;52707;52.086;5.418;2023-06-26T11:21:08;4.35;;;1.48;;
65936;SDS011;52707;52.086;5.418;2023-06-26T11:23:36;4.80;;;1.20;;
65936;SDS011;52707;52.086;5.418;2023-06-26T11:26:18;2.60;;;1.35;;
65936;SDS011;52707;52.086;5.418;2023-06-26T11:28:48;2.75;;;1.08;;
65936;SDS011;52707;52.086;5.418;2023-06-26T11:31:27;4.07;;;1.17;;
65936;SDS011;52707;52.086;5.418;2023-06-26T11:33:54;11.35;;;1.33;;
65936;SDS011;52707;52.086;5.418;2023-06-26T11:36:22;6.13;;;1.50;;
65936;SDS011;52707;52.086;5.418;2023-06-26T11:38:52;4.97;;;1.75;;
65936;SDS011;52707;52.086;5.418;2023-06-26T11:41:18;3.58;;;1.40;;
65936;SDS011;52707;52.086;5.418;2023-06-26T11:43:45;4.20;;;1.48;;
65936;SDS011;52707;52.086;5.418;2023-06-26T11:46:11;6.97;;;1.60;;
65936;SDS011;52707;52.086;5.418;2023-06-26T11:48:38;5.30;;;1.20;;
65936;SDS011;52707;52.086;5.418;2023-06-26T11:51:05;8.90;;;1.52;;
65936;SDS011;52707;52.086;5.418;2023-06-26T11:53:32;3.45;;;1.10;;
65936;SDS011;52707;52.086;5.418;2023-06-26T11:56:11;4.72;;;1.25;;
65936;SDS011;52707;52.086;5.418;2023-06-26T12:01:39;7.40;;;1.27;;
65936;SDS011;52707;52.086;5.418;2023-06-26T12:04:10;4.40;;;1.20;;
65936;SDS011;52707;52.086;5.418;2023-06-26T12:06:40;4.32;;;1.27;;
65936;SDS011;52707;52.086;5.418;2023-06-26T12:09:09;9.20;;;1.00;;
65936;SDS011;52707;52.086;5.418;2023-06-26T12:11:37;7.82;;;1.10;;
65936;SDS011;52707;52.086;5.418;2023-06-26T12:14:05;4.47;;;0.90;;
65936;SDS011;52707;52.086;5.418;2023-06-26T12:16:33;7.32;;;1.30;;
65936;SDS011;52707;52.086;5.418;2023-06-26T12:19:02;2.45;;;0.82;;
65936;SDS011;52707;52.086;5.418;2023-06-26T12:23:59;4.68;;;0.80;;
65936;SDS011;52707;52.086;5.418;2023-06-26T12:26:29;2.92;;;1.40;;
65936;SDS011;52707;52.086;5.418;2023-06-26T12:31:34;7.28;;;1.65;;
65936;SDS011;52707;52.086;5.418;2023-06-26T12:34:00;2.88;;;1.00;;
65936;SDS011;52707;52.086;5.418;2023-06-26T12:36:27;2.97;;;1.00;;
65936;SDS011;52707;52.086;5.418;2023-06-26T12:38:54;3.15;;;0.90;;
65936;SDS011;52707;52.086;5.418;2023-06-26T12:41:20;13.35;;;1.08;;
65936;SDS011;52707;52.086;5.418;2023-06-26T12:43:49;2.77;;;0.90;;
65936;SDS011;52707;52.086;5.418;2023-06-26T12:46:32;4.63;;;1.08;;
65936;SDS011;52707;52.086;5.418;2023-06-26T12:48:59;9.85;;;1.20;;
65936;SDS011;52707;52.086;5.418;2023-06-26T12:51:25;3.08;;;0.93;;
65936;SDS011;52707;52.086;5.418;2023-06-26T12:53:53;3.00;;;0.90;;
65936;SDS011;52707;52.086;5.418;2023-06-26T12:56:20;7.97;;;1.23;;
65936;SDS011;52707;52.086;5.418;2023-06-26T12:58:46;2.58;;;1.05;;
65936;SDS011;52707;52.086;5.418;2023-06-26T13:01:13;9.00;;;1.13;;
65936;SDS011;52707;52.086;5.418;2023-06-26T13:03:46;3.15;;;1.10;;
65936;SDS011;52707;52.086;5.418;2023-06-26T13:06:12;5.28;;;1.13;;
65936;SDS011;52707;52.086;5.418;2023-06-26T13:08:40;3.22;;;1.35;;
65936;SDS011;52707;52.086;5.418;2023-06-26T13:11:07;6.88;;;1.17;;
65936;SDS011;52707;52.086;5.418;2023-06-26T13:13:33;1.67;;;1.00;;
65936;SDS011;52707;52.086;5.418;2023-06-26T13:15:59;6.93;;;0.88;;
65936;SDS011;52707;52.086;5.418;2023-06-26T13:18:26;3.70;;;1.13;;
65936;SDS011;52707;52.086;5.418;2023-06-26T13:20:52;4.25;;;0.80;;
65936;SDS011;52707;52.086;5.418;2023-06-26T13:23:19;4.88;;;1.10;;
65936;SDS011;52707;52.086;5.418;2023-06-26T13:25:45;1.30;;;0.85;;
65936;SDS011;52707;52.086;5.418;2023-06-26T13:28:12;1.85;;;0.90;;
65936;SDS011;52707;52.086;5.418;2023-06-26T13:30:38;7.85;;;0.90;;
65936;SDS011;52707;52.086;5.418;2023-06-26T13:33:05;3.67;;;1.13;;
65936;SDS011;52707;52.086;5.418;2023-06-26T13:35:32;7.95;;;0.95;;
65936;SDS011;52707;52.086;5.418;2023-06-26T13:37:59;5.13;;;1.55;;
65936;SDS011;52707;52.086;5.418;2023-06-26T13:40:25;5.60;;;1.42;;
65936;SDS011;52707;52.086;5.418;2023-06-26T13:42:52;4.80;;;0.73;;
65936;SDS011;52707;52.086;5.418;2023-06-26T13:45:19;8.90;;;1.42;;
65936;SDS011;52707;52.086;5.418;2023-06-26T13:47:57;5.93;;;1.20;;
65936;SDS011;52707;52.086;5.418;2023-06-26T13:50:23;2.25;;;0.60;;
65936;SDS011;52707;52.086;5.418;2023-06-26T13:52:49;2.70;;;0.82;;
65936;SDS011;52707;52.086;5.418;2023-06-26T13:55:16;1.17;;;0.90;;
65936;SDS011;52707;52.086;5.418;2023-06-26T13:57:43;5.70;;;1.10;;
65936;SDS011;52707;52.086;5.418;2023-06-26T14:00:09;4.22;;;1.25;;
65936;SDS011;52707;52.086;5.418;2023-06-26T14:02:38;3.35;;;1.00;;
65936;SDS011;52707;52.086;5.418;2023-06-26T14:05:05;5.07;;;1.15;;
65936;SDS011;52707;52.086;5.418;2023-06-26T14:07:31;6.38;;;1.50;;
65936;SDS011;52707;52.086;5.418;2023-06-26T14:09:58;4.30;;;1.20;;
65936;SDS011;52707;52.086;5.418;2023-06-26T14:12:24;1.80;;;0.70;;
65936;SDS011;52707;52.086;5.418;2023-06-26T14:14:51;2.08;;;0.90;;
65936;SDS011;52707;52.086;5.418;2023-06-26T14:17:17;4.55;;;1.00;;
65936;SDS011;52707;52.086;5.418;2023-06-26T14:19:44;3.88;;;0.80;;
65936;SDS011;52707;52.086;5.418;2023-06-26T14:22:11;8.48;;;1.23;;
65936;SDS011;52707;52.086;5.418;2023-06-26T14:24:38;7.70;;;1.10;;
65936;SDS011;52707;52.086;5.418;2023-06-26T14:27:04;5.45;;;1.00;;
65936;SDS011;52707;52.086;5.418;2023-06-26T14:29:31;45.35;;;2.47;;
65936;SDS011;52707;52.086;5.418;2023-06-26T14:31:57;24.48;;;1.92;;
65936;SDS011;52707;52.086;5.418;2023-06-26T14:34:23;17.98;;;2.67;;
65936;SDS011;52707;52.086;5.418;2023-06-26T14:36:50;27.15;;;2.00;;
65936;SDS011;52707;52.086;5.418;2023-06-26T14:39:16;3.70;;;1.23;;
65936;SDS011;52707;52.086;5.418;2023-06-26T14:41:43;5.45;;;1.25;;
65936;SDS011;52707;52.086;5.418;2023-06-26T14:44:10;3.08;;;1.08;;
65936;SDS011;52707;52.086;5.418;2023-06-26T14:46:37;6.45;;;1.02;;
65936;SDS011;52707;52.086;5.418;2023-06-26T14:49:04;4.18;;;0.80;;
65936;SDS011;52707;52.086;5.418;2023-06-26T14:51:31;4.50;;;0.80;;
65936;SDS011;52707;52.086;5.418;2023-06-26T14:53:57;6.22;;;1.10;;
65936;SDS011;52707;52.086;5.418;2023-06-26T14:56:23;5.68;;;1.05;;
65936;SDS011;52707;52.086;5.418;2023-06-26T14:58:50;4.40;;;1.10;;
65936;SDS011;52707;52.086;5.418;2023-06-26T15:01:19;2.33;;;1.00;;
65936;SDS011;52707;52.086;5.418;2023-06-26T15:03:46;5.80;;;1.20;;
65936;SDS011;52707;52.086;5.418;2023-06-26T15:06:13;5.15;;;1.38;;
65936;SDS011;52707;52.086;5.418;2023-06-26T15:08:39;4.50;;;0.98;;
65936;SDS011;52707;52.086;5.418;2023-06-26T15:11:06;2.75;;;1.10;;
65936;SDS011;52707;52.086;5.418;2023-06-26T15:13:32;4.93;;;1.20;;
65936;SDS011;52707;52.086;5.418;2023-06-26T15:15:59;5.45;;;1.00;;
65936;SDS011;52707;52.086;5.418;2023-06-26T15:18:25;2.40;;;1.35;;
65936;SDS011;52707;52.086;5.418;2023-06-26T15:20:51;15.70;;;1.48;;
65936;SDS011;52707;52.086;5.418;2023-06-26T15:23:18;4.95;;;1.25;;